Aérodrome :
LOGIN :

S'inscrire | Disclaimer

   EN    FR    IT 

 










Légende :    VFR   VFR Marginal   IFR   IFR Intensif   IFR Très Intensif
Visi : 
Plafond : 
>= 8 km
>= 3000ft
5 à 8 km
1000 à 3000 ft
1500m à 5 km
500 à 1000 ft
800 à 1500m
200 à 500 ft
< 800m
< 200 ft
Symboles :   Orages  Brouillard  Fortes neiges  Fortes précipitations  Vent > 20 kt
SIGMETs :   Divers  Orages  Givrage  Turbulence  Onde Orograph.  Cendres Volcan.







- Altitude de l'aérodrome : 117 ft
- Code IATA : NWI
- Voir les cartes d'approche


EGSH - Norwich

DERNIER METAR :
  • 160720Z 22013KT 9999 -RA SCT013 BKN017 19/16 Q1011 TEMPO RA

METARs EXPIRÉS :
  • 160650Z 21013KT 9999 SCT018 BKN031 19/16 Q1011 TEMPO RA
  • 160620Z 21012KT 160V250 9999 FEW027 SCT032 18/16 Q1011 NOSIG
  • 160550Z 20011KT CAVOK 17/15 Q1011 NOSIG
  • 160520Z 19010KT 9999 FEW048 17/15 Q1011 NOSIG
  • 160450Z 19009KT CAVOK 16/15 Q1011 NOSIG

TAF TAF EGSH
Valide du 16 à 06h jusqu'au 16 à 15h UTC


160500Z 1606/1615 21010KT 9999 SCT030
TEMPO 1606/1614 6000 RA BKN010
ATIS : +44 1603 420 640
Pas de NOTAMs connus pour ce terrain.



MET'MAP, la Météo Aéronautique d'un coup d'oeil ! - Copyright ORBIFLY Décembre 2007 - Disclaimer

ORBIFLY MET'MAP TEAM :

Programmation & Développement : Alexandra Zaïnal
Conception & Développement : Baudouin d'Aumeries
Co-Programmation & Développement : Marc-Olivier Méhu
Soutien technique & logistique : Manuel Goepfert

Contact : metmap@orbifly.com




SOURCES & CREDITS :

   NOAA